Time;durP1;ratioP1;P1;durP2;ratioP2;P2;SDS_P1;SDS_P2;PMS_P1;PMS_P2;Temp;Humidity;BMP_temperature;BMP_pressure;BME280_temperature;BME280_humidity;BME280_pressure;Samples;Min_cycle;Max_cycle;Signal;HPM_P1;HPM_P2
2022/12/13 00:01:46;;;;;;;22.95;5.13;;;;;;;;;;4977754;28;20025;-66
2022/12/13 00:04:12;;;;;;;23.33;4.95;;;;;;;;;;4978523;28;20084;-67
2022/12/13 00:06:38;;;;;;;18.38;3.85;;;;;;;;;;4978346;28;20029;-66
2022/12/13 00:09:05;;;;;;;22.38;4.32;;;;;;;;;;4974112;28;20025;-64
2022/12/13 00:11:31;;;;;;;18.67;4.60;;;;;;;;;;4969158;28;20131;-64
2022/12/13 00:13:57;;;;;;;;;;;;;;;;;;4969892;28;20136;-64
2022/12/13 00:16:24;;;;;;;17.60;3.22;;;;;;;;;;4973079;28;20036;-64
2022/12/13 00:18:54;;;;;;;13.30;2.55;;;;;;;;;;4975005;28;20149;-65
2022/12/13 00:21:20;;;;;;;13.30;2.42;;;;;;;;;;4974953;28;20049;-65
2022/12/13 00:23:47;;;;;;;11.95;2.33;;;;;;;;;;4984120;28;20043;-64
2022/12/13 00:26:14;;;;;;;10.98;1.85;;;;;;;;;;4971236;28;20524;-64
2022/12/13 00:28:40;;;;;;;11.80;2.10;;;;;;;;;;4975803;28;20034;-64
2022/12/13 00:31:07;;;;;;;13.45;2.60;;;;;;;;;;4970892;28;20038;-64
2022/12/13 00:33:33;;;;;;;11.35;2.40;;;;;;;;;;4971891;28;20022;-64
2022/12/13 00:35:59;;;;;;;;;;;;;;;;;;4979105;28;20325;-64
2022/12/13 00:38:26;;;;;;;9.77;1.83;;;;;;;;;;4990152;28;20038;-65
2022/12/13 00:40:52;;;;;;;;;;;;;;;;;;4977636;28;20041;-65
2022/12/13 00:43:18;;;;;;;11.13;2.03;;;;;;;;;;4974070;28;19988;-65
2022/12/13 00:45:45;;;;;;;9.48;1.75;;;;;;;;;;4975606;28;21552;-65
2022/12/13 00:48:11;;;;;;;11.07;1.77;;;;;;;;;;4980200;28;20348;-65
2022/12/13 00:50:37;;;;;;;9.93;1.88;;;;;;;;;;4976321;28;20045;-65
2022/12/13 00:53:03;;;;;;;13.15;1.80;;;;;;;;;;4976507;28;20254;-64
2022/12/13 00:55:30;;;;;;;11.85;1.83;;;;;;;;;;4971879;28;20041;-64
2022/12/13 00:57:56;;;;;;;;;;;;;;;;;;4976351;28;20040;-65
2022/12/13 01:00:22;;;;;;;11.05;1.90;;;;;;;;;;4972765;28;19917;-64
2022/12/13 01:02:48;;;;;;;10.57;2.47;;;;;;;;;;4980998;28;20128;-65
2022/12/13 01:05:14;;;;;;;;;;;;;;;;;;4977172;28;20121;-64
2022/12/13 01:07:43;;;;;;;7.95;1.80;;;;;;;;;;4972155;28;20029;-64
2022/12/13 01:10:10;;;;;;;10.63;2.17;;;;;;;;;;4971234;28;20311;-66
2022/12/13 01:12:37;;;;;;;11.65;1.77;;;;;;;;;;4975170;28;20041;-65
2022/12/13 01:15:03;;;;;;;;;;;;;;;;;;4980141;28;20267;-67
2022/12/13 01:17:29;;;;;;;9.85;2.00;;;;;;;;;;4973276;28;21345;-65
2022/12/13 01:19:55;;;;;;;16.42;2.80;;;;;;;;;;4977213;28;20053;-65
2022/12/13 01:22:22;;;;;;;12.23;2.15;;;;;;;;;;4973233;28;20096;-64
2022/12/13 01:24:48;;;;;;;;;;;;;;;;;;4978768;28;20034;-65
2022/12/13 01:27:14;;;;;;;12.60;2.28;;;;;;;;;;4978454;28;20181;-65
2022/12/13 01:29:40;;;;;;;9.80;1.80;;;;;;;;;;4976307;28;20443;-65
2022/12/13 01:32:06;;;;;;;12.73;2.60;;;;;;;;;;4981999;28;20026;-65
2022/12/13 01:34:32;;;;;;;11.38;2.03;;;;;;;;;;4970344;28;20030;-65
2022/12/13 01:36:58;;;;;;;;;;;;;;;;;;4956379;28;20091;-65
2022/12/13 01:39:25;;;;;;;11.23;2.15;;;;;;;;;;4947215;28;20585;-65
2022/12/13 01:41:58;;;;;;;13.20;2.30;;;;;;;;;;4972207;28;20424;-64
2022/12/13 01:44:43;;;;;;;12.00;2.25;;;;;;;;;;4970760;28;20262;-66
2022/12/13 01:47:09;;;;;;;13.10;2.50;;;;;;;;;;4975404;28;20030;-64
2022/12/13 01:49:35;;;;;;;14.10;2.30;;;;;;;;;;4971731;28;20128;-65
2022/12/13 01:52:03;;;;;;;16.08;2.45;;;;;;;;;;4976283;28;20030;-64
2022/12/13 01:54:32;;;;;;;16.38;3.00;;;;;;;;;;4971274;28;22197;-64
2022/12/13 01:56:59;;;;;;;16.88;3.03;;;;;;;;;;4975753;28;21107;-64
2022/12/13 01:59:26;;;;;;;15.65;2.97;;;;;;;;;;4960520;28;20058;-64
2022/12/13 02:01:52;;;;;;;19.55;3.03;;;;;;;;;;4977543;28;20026;-65
2022/12/13 02:04:18;;;;;;;;;;;;;;;;;;4973471;28;20034;-64
2022/12/13 02:06:45;;;;;;;14.80;3.00;;;;;;;;;;4978122;28;19913;-65
2022/12/13 02:09:12;;;;;;;17.45;2.97;;;;;;;;;;4973109;28;20018;-65
2022/12/13 02:11:40;;;;;;;24.73;3.47;;;;;;;;;;4974073;28;20145;-65
2022/12/13 02:14:08;;;;;;;13.75;2.72;;;;;;;;;;4974743;28;20404;-64
2022/12/13 02:16:44;;;;;;;17.65;3.35;;;;;;;;;;4971295;28;20041;-64
2022/12/13 02:19:36;;;;;;;18.20;3.33;;;;;;;;;;4974739;28;20117;-64
2022/12/13 02:22:12;;;;;;;21.02;3.47;;;;;;;;;;4970340;28;20378;-64
2022/12/13 02:24:52;;;;;;;17.73;2.92;;;;;;;;;;4991824;28;20057;-64
2022/12/13 02:27:34;;;;;;;20.63;3.40;;;;;;;;;;4972475;28;20025;-64
2022/12/13 02:30:20;;;;;;;19.52;3.53;;;;;;;;;;4976968;28;20030;-64
2022/12/13 02:32:51;;;;;;;20.40;3.42;;;;;;;;;;4978147;28;20041;-64
2022/12/13 02:35:23;;;;;;;20.75;3.83;;;;;;;;;;4970785;28;20034;-64
2022/12/13 02:37:55;;;;;;;19.92;3.28;;;;;;;;;;4973442;28;20026;-64
2022/12/13 02:40:40;;;;;;;17.95;3.42;;;;;;;;;;4970493;28;20236;-64
2022/12/13 02:43:09;;;;;;;15.70;3.30;;;;;;;;;;4972816;28;20435;-64
2022/12/13 02:45:41;;;;;;;15.27;2.38;;;;;;;;;;4971201;28;20034;-64
2022/12/13 02:48:08;;;;;;;20.25;2.80;;;;;;;;;;4979229;28;20029;-64
2022/12/13 02:50:35;;;;;;;14.20;2.70;;;;;;;;;;4972309;28;20041;-66
2022/12/13 02:53:02;;;;;;;13.93;2.50;;;;;;;;;;4980417;28;20030;-64
2022/12/13 02:55:28;;;;;;;13.52;2.53;;;;;;;;;;4972902;28;20159;-64
2022/12/13 02:57:54;;;;;;;;;;;;;;;;;;4977741;28;20530;-64
2022/12/13 03:00:23;;;;;;;14.00;2.42;;;;;;;;;;4972698;28;20430;-66
2022/12/13 03:03:07;;;;;;;12.45;2.28;;;;;;;;;;4977958;28;20038;-65
2022/12/13 03:08:26;;;;;;;12.20;2.00;;;;;;;;;;4976569;28;20072;-64
2022/12/13 03:11:03;;;;;;;13.60;2.35;;;;;;;;;;4970716;28;20042;-64
2022/12/13 03:13:38;;;;;;;13.05;2.10;;;;;;;;;;4976970;28;22516;-65
2022/12/13 03:16:15;;;;;;;13.85;2.25;;;;;;;;;;4971509;28;20441;-65
2022/12/13 03:18:41;;;;;;;14.00;2.70;;;;;;;;;;4971348;28;20030;-65
2022/12/13 03:21:10;;;;;;;;;;;;;;;;;;4977695;28;20117;-65
2022/12/13 03:23:37;;;;;;;14.43;2.05;;;;;;;;;;4977786;28;19919;-65
2022/12/13 03:26:09;;;;;;;10.10;1.70;;;;;;;;;;4972170;28;20038;-65
2022/12/13 03:28:35;;;;;;;9.85;1.95;;;;;;;;;;4975927;28;20036;-65
2022/12/13 03:31:01;;;;;;;;;;;;;;;;;;4973293;28;20373;-65
2022/12/13 03:33:27;;;;;;;9.10;1.63;;;;;;;;;;4973096;28;20304;-64
2022/12/13 03:35:53;;;;;;;12.32;2.05;;;;;;;;;;4975163;28;20117;-65
2022/12/13 03:38:20;;;;;;;11.75;1.85;;;;;;;;;;4969027;28;20030;-65
2022/12/13 03:40:46;;;;;;;11.32;1.88;;;;;;;;;;4975652;28;20029;-66
2022/12/13 03:43:12;;;;;;;;;;;;;;;;;;4973604;28;20561;-64
2022/12/13 03:45:38;;;;;;;7.63;1.40;;;;;;;;;;4971444;28;19917;-65
2022/12/13 03:48:04;;;;;;;;;;;;;;;;;;4974418;28;20041;-65
2022/12/13 03:50:30;;;;;;;8.50;1.45;;;;;;;;;;4967770;28;19918;-65
2022/12/13 03:52:56;;;;;;;;;;;;;;;;;;4975745;28;20034;-65
2022/12/13 03:55:22;;;;;;;9.10;1.38;;;;;;;;;;4971754;28;19920;-65
2022/12/13 03:57:49;;;;;;;9.55;1.67;;;;;;;;;;4969084;28;20026;-65
2022/12/13 04:00:14;;;;;;;;;;;;;;;;;;4970539;28;20061;-65
2022/12/13 04:02:41;;;;;;;8.57;1.65;;;;;;;;;;4975817;28;19917;-65
2022/12/13 04:05:07;;;;;;;;;;;;;;;;;;4974183;28;20057;-65
2022/12/13 04:07:33;;;;;;;11.10;1.77;;;;;;;;;;4969508;28;19991;-65
2022/12/13 04:09:59;;;;;;;;;;;;;;;;;;4977087;28;20038;-65
2022/12/13 04:15:10;;;;;;;7.03;1.33;;;;;;;;;;4973419;28;20075;-64
2022/12/13 04:17:36;;;;;;;10.30;1.60;;;;;;;;;;4972490;28;20187;-64
2022/12/13 04:20:02;;;;;;;10.05;1.40;;;;;;;;;;4990101;28;20223;-64
2022/12/13 04:22:28;;;;;;;;;;;;;;;;;;4975950;28;20470;-64
2022/12/13 04:24:54;;;;;;;7.15;1.20;;;;;;;;;;4981013;28;19975;-65
2022/12/13 04:27:20;;;;;;;;;;;;;;;;;;4974592;28;20771;-64
2022/12/13 04:29:46;;;;;;;9.57;1.30;;;;;;;;;;4977533;28;20397;-64
2022/12/13 04:32:12;;;;;;;6.72;1.17;;;;;;;;;;4977270;28;20134;-64
2022/12/13 04:34:38;;;;;;;6.88;1.13;;;;;;;;;;4979635;28;20116;-64
2022/12/13 04:37:04;;;;;;;;;;;;;;;;;;4979477;28;20034;-65
2022/12/13 04:39:30;;;;;;;7.40;1.35;;;;;;;;;;4976424;28;19995;-65
2022/12/13 04:41:57;;;;;;;6.78;1.10;;;;;;;;;;4977900;28;20025;-64
2022/12/13 04:44:23;;;;;;;;;;;;;;;;;;4975822;28;20034;-64
2022/12/13 04:46:49;;;;;;;7.47;1.20;;;;;;;;;;4993465;28;19910;-66
2022/12/13 04:49:15;;;;;;;9.73;1.38;;;;;;;;;;4969075;28;20042;-64
2022/12/13 04:51:41;;;;;;;5.82;0.85;;;;;;;;;;4978627;28;20026;-65
2022/12/13 04:54:07;;;;;;;6.88;1.10;;;;;;;;;;4974591;28;20132;-64
2022/12/13 04:56:33;;;;;;;;;;;;;;;;;;4971155;28;20030;-64
2022/12/13 04:58:59;;;;;;;6.38;1.15;;;;;;;;;;4978891;28;20390;-64
2022/12/13 05:01:25;;;;;;;;;;;;;;;;;;4976540;28;20034;-65
2022/12/13 05:03:51;;;;;;;5.93;1.05;;;;;;;;;;4980314;28;20031;-64
2022/12/13 05:06:18;;;;;;;7.05;0.93;;;;;;;;;;4975836;28;20037;-64
2022/12/13 05:08:44;;;;;;;;;;;;;;;;;;4979306;28;20041;-65
2022/12/13 05:11:10;;;;;;;5.97;1.17;;;;;;;;;;4976095;28;20292;-65
2022/12/13 05:13:37;;;;;;;8.60;1.35;;;;;;;;;;4974749;28;20136;-65
2022/12/13 05:16:04;;;;;;;5.82;0.90;;;;;;;;;;4976895;28;20481;-65
2022/12/13 05:18:31;;;;;;;7.28;1.75;;;;;;;;;;4966298;28;20045;-65
2022/12/13 05:21:01;;;;;;;6.32;1.20;;;;;;;;;;4974356;28;20034;-65
2022/12/13 05:23:27;;;;;;;8.15;1.30;;;;;;;;;;4974021;28;20512;-65
2022/12/13 05:25:53;;;;;;;5.80;1.27;;;;;;;;;;4979762;28;20320;-65
2022/12/13 05:28:19;;;;;;;6.50;1.30;;;;;;;;;;4968495;28;20112;-65
2022/12/13 05:30:45;;;;;;;;;;;;;;;;;;4979454;28;20017;-65
2022/12/13 05:33:11;;;;;;;4.60;0.80;;;;;;;;;;4968977;28;20346;-65
2022/12/13 05:35:38;;;;;;;7.50;1.40;;;;;;;;;;4977269;28;20026;-65
2022/12/13 05:38:04;;;;;;;;;;;;;;;;;;4973910;28;20282;-67
2022/12/13 05:40:31;;;;;;;6.80;1.27;;;;;;;;;;4969034;28;20751;-64
2022/12/13 05:42:57;;;;;;;6.78;1.50;;;;;;;;;;4975343;28;20026;-65
2022/12/13 05:45:24;;;;;;;6.13;1.50;;;;;;;;;;4969967;28;20592;-65
2022/12/13 05:47:50;;;;;;;7.22;1.58;;;;;;;;;;4972906;28;20030;-64
2022/12/13 05:50:16;;;;;;;7.85;2.17;;;;;;;;;;4972348;28;20435;-65
2022/12/13 05:52:42;;;;;;;8.25;1.60;;;;;;;;;;4976732;28;20041;-65
2022/12/13 05:55:09;;;;;;;5.72;1.00;;;;;;;;;;4982248;28;20026;-65
2022/12/13 05:57:36;;;;;;;3.72;0.73;;;;;;;;;;4975063;28;20034;-65
2022/12/13 06:00:03;;;;;;;5.43;0.95;;;;;;;;;;4973166;28;20041;-65
2022/12/13 06:02:29;;;;;;;5.97;1.08;;;;;;;;;;4970378;28;21833;-65
2022/12/13 06:04:56;;;;;;;;;;;;;;;;;;4972208;28;20026;-65
2022/12/13 06:07:22;;;;;;;3.25;0.73;;;;;;;;;;4966801;28;19941;-65
2022/12/13 06:09:48;;;;;;;;;;;;;;;;;;4976599;28;20472;-65
2022/12/13 06:12:15;;;;;;;4.32;0.90;;;;;;;;;;4973851;28;20130;-65
2022/12/13 06:14:41;;;;;;;6.15;1.00;;;;;;;;;;4978365;28;20026;-65
2022/12/13 06:17:07;;;;;;;;;;;;;;;;;;4974360;28;20242;-65
2022/12/13 06:19:33;;;;;;;4.68;0.80;;;;;;;;;;4969850;28;19964;-65
2022/12/13 06:22:00;;;;;;;6.63;1.10;;;;;;;;;;4972708;28;20097;-65
2022/12/13 06:24:26;;;;;;;3.80;0.80;;;;;;;;;;4968372;28;20018;-65
2022/12/13 06:26:52;;;;;;;5.72;0.70;;;;;;;;;;4977848;28;20033;-65
2022/12/13 06:29:20;;;;;;;4.43;0.73;;;;;;;;;;4968550;28;20033;-65
2022/12/13 06:31:46;;;;;;;5.38;0.70;;;;;;;;;;4977325;28;20030;-67
2022/12/13 06:34:12;;;;;;;;;;;;;;;;;;4972643;28;20034;-65
2022/12/13 06:36:39;;;;;;;3.78;0.77;;;;;;;;;;4977949;28;19948;-65
2022/12/13 06:39:05;;;;;;;;;;;;;;;;;;4972856;28;20030;-65
2022/12/13 06:41:31;;;;;;;4.28;0.70;;;;;;;;;;4968686;28;20682;-65
2022/12/13 06:43:57;;;;;;;3.97;0.63;;;;;;;;;;4975764;28;20037;-65
2022/12/13 06:46:24;;;;;;;;;;;;;;;;;;4967580;28;20042;-65
2022/12/13 06:48:50;;;;;;;4.53;0.75;;;;;;;;;;4976994;28;20585;-65
2022/12/13 06:51:17;;;;;;;4.65;0.80;;;;;;;;;;4970986;28;20040;-65
2022/12/13 06:53:43;;;;;;;;;;;;;;;;;;4974407;28;20538;-65
2022/12/13 06:56:10;;;;;;;2.75;0.55;;;;;;;;;;4979450;28;19921;-66
2022/12/13 06:58:36;;;;;;;4.85;0.82;;;;;;;;;;4973232;28;20026;-65
2022/12/13 07:01:02;;;;;;;;;;;;;;;;;;4976335;28;20453;-65
2022/12/13 07:03:28;;;;;;;6.88;0.80;;;;;;;;;;4971876;28;20570;-65
2022/12/13 07:05:55;;;;;;;6.00;1.10;;;;;;;;;;4975151;28;20026;-64
2022/12/13 07:08:21;;;;;;;;;;;;;;;;;;4972046;28;20112;-64
2022/12/13 07:10:47;;;;;;;7.18;1.60;;;;;;;;;;4966689;28;19927;-67
2022/12/13 07:13:13;;;;;;;7.00;1.70;;;;;;;;;;4971932;28;20076;-64
2022/12/13 07:15:39;;;;;;;;;;;;;;;;;;4974872;28;20026;-65
2022/12/13 07:18:05;;;;;;;3.65;0.88;;;;;;;;;;4974332;28;20716;-65
2022/12/13 07:20:31;;;;;;;;;;;;;;;;;;4967079;28;20492;-65
2022/12/13 07:22:57;;;;;;;6.80;0.85;;;;;;;;;;4973601;28;19967;-65
2022/12/13 07:25:23;;;;;;;;;;;;;;;;;;4968538;28;20288;-67
2022/12/13 07:27:55;;;;;;;5.97;1.00;;;;;;;;;;4970664;28;20035;-64
2022/12/13 07:30:21;;;;;;;4.45;0.98;;;;;;;;;;4968003;28;20761;-67
2022/12/13 07:32:47;;;;;;;5.32;1.10;;;;;;;;;;4975756;28;20025;-65
2022/12/13 07:35:13;;;;;;;;;;;;;;;;;;4968539;28;20120;-65
2022/12/13 07:37:39;;;;;;;5.43;1.00;;;;;;;;;;4968867;28;20026;-65
2022/12/13 07:40:06;;;;;;;4.82;1.00;;;;;;;;;;4970190;28;20034;-65
2022/12/13 07:42:33;;;;;;;6.18;1.00;;;;;;;;;;4970062;28;20041;-65
2022/12/13 07:44:59;;;;;;;4.82;1.08;;;;;;;;;;4974500;28;20040;-65
2022/12/13 07:47:28;;;;;;;;;;;;;;;;;;4971735;28;20458;-65
2022/12/13 07:49:54;;;;;;;5.32;0.95;;;;;;;;;;4975699;28;19922;-65
2022/12/13 07:52:20;;;;;;;9.35;1.10;;;;;;;;;;4969614;28;20033;-65
2022/12/13 07:54:46;;;;;;;;;;;;;;;;;;4975827;28;20045;-65
2022/12/13 07:57:12;;;;;;;5.70;1.10;;;;;;;;;;4976030;28;20433;-65
2022/12/13 07:59:38;;;;;;;;;;;;;;;;;;4978383;28;20510;-65
2022/12/13 08:02:05;;;;;;;6.50;1.10;;;;;;;;;;4977581;28;20339;-65
2022/12/13 08:04:32;;;;;;;6.55;0.98;;;;;;;;;;4974863;28;20044;-65
2022/12/13 08:06:58;;;;;;;5.22;0.90;;;;;;;;;;4976096;28;20030;-68
2022/12/13 08:09:24;;;;;;;;;;;;;;;;;;4973379;28;20547;-65
2022/12/13 08:11:50;;;;;;;5.95;1.10;;;;;;;;;;4974017;28;20071;-65
2022/12/13 08:14:16;;;;;;;;;;;;;;;;;;4969251;28;20490;-65
2022/12/13 08:16:42;;;;;;;6.35;1.20;;;;;;;;;;4980075;28;19918;-65
2022/12/13 08:19:09;;;;;;;;;;;;;;;;;;4980770;28;20054;-66
2022/12/13 08:21:39;;;;;;;6.38;1.20;;;;;;;;;;4974967;28;19964;-65
2022/12/13 08:24:05;;;;;;;5.07;1.02;;;;;;;;;;4981745;28;20099;-65
2022/12/13 08:26:32;;;;;;;5.43;0.80;;;;;;;;;;4972484;28;20030;-66
2022/12/13 08:28:58;;;;;;;;;;;;;;;;;;4977348;28;20029;-66
2022/12/13 08:31:25;;;;;;;6.63;1.10;;;;;;;;;;4971838;28;19925;-66
2022/12/13 08:33:51;;;;;;;4.65;1.02;;;;;;;;;;4974651;28;20087;-65
2022/12/13 08:36:17;;;;;;;;;;;;;;;;;;4975238;28;20033;-65
2022/12/13 08:38:46;;;;;;;7.43;1.30;;;;;;;;;;4976854;28;19935;-65
2022/12/13 08:41:12;;;;;;;5.90;1.13;;;;;;;;;;4973130;28;20058;-67
2022/12/13 08:43:39;;;;;;;7.40;1.20;;;;;;;;;;4981086;28;20042;-64
2022/12/13 08:46:05;;;;;;;4.72;0.80;;;;;;;;;;4973066;28;20471;-65
2022/12/13 08:48:31;;;;;;;6.45;1.17;;;;;;;;;;4973019;28;20041;-65
2022/12/13 08:51:06;;;;;;;4.70;0.98;;;;;;;;;;4977528;28;20120;-65
2022/12/13 08:53:32;;;;;;;4.88;1.00;;;;;;;;;;4970077;28;20037;-65
2022/12/13 08:55:58;;;;;;;;;;;;;;;;;;4974454;28;20103;-65
2022/12/13 08:58:24;;;;;;;7.82;1.17;;;;;;;;;;4978167;28;20365;-65
2022/12/13 09:00:50;;;;;;;;;;;;;;;;;;4978018;28;20025;-65
2022/12/13 09:03:16;;;;;;;5.65;1.02;;;;;;;;;;4975015;28;19920;-65
2022/12/13 09:05:42;;;;;;;;;;;;;;;;;;4979499;28;20976;-65
2022/12/13 09:08:08;;;;;;;5.35;1.00;;;;;;;;;;4977301;28;19964;-65
2022/12/13 09:10:34;;;;;;;5.50;1.00;;;;;;;;;;4973421;28;20123;-65
2022/12/13 09:13:00;;;;;;;;;;;;;;;;;;4974912;28;20429;-66
2022/12/13 09:15:27;;;;;;;5.63;0.93;;;;;;;;;;4969922;28;20500;-66
2022/12/13 09:17:54;;;;;;;5.10;1.10;;;;;;;;;;4975700;28;20502;-66
2022/12/13 09:20:20;;;;;;;7.68;1.50;;;;;;;;;;4973648;28;20065;-66
2022/12/13 09:22:46;;;;;;;6.35;1.50;;;;;;;;;;4976350;28;20110;-65
2022/12/13 09:25:12;;;;;;;8.13;1.65;;;;;;;;;;4973599;28;20045;-65
2022/12/13 09:27:38;;;;;;;7.45;1.65;;;;;;;;;;4971670;28;20026;-65
2022/12/13 09:30:06;;;;;;;7.38;2.20;;;;;;;;;;4976637;28;20319;-65
2022/12/13 09:32:33;;;;;;;6.20;1.45;;;;;;;;;;4971582;28;20807;-65
2022/12/13 09:34:59;;;;;;;12.23;3.78;;;;;;;;;;4976840;28;20026;-67
2022/12/13 09:37:26;;;;;;;11.23;3.65;;;;;;;;;;4972227;28;20109;-65
2022/12/13 09:39:52;;;;;;;7.97;2.13;;;;;;;;;;4972471;28;20105;-66
2022/12/13 09:42:27;;;;;;;7.97;2.38;;;;;;;;;;4975293;28;20037;-65
2022/12/13 09:44:58;;;;;;;8.73;2.65;;;;;;;;;;4978785;28;20434;-65
2022/12/13 09:47:30;;;;;;;10.77;3.08;;;;;;;;;;4969794;28;20064;-65
2022/12/13 09:49:58;;;;;;;9.60;3.10;;;;;;;;;;4984998;28;20018;-65
2022/12/13 09:52:25;;;;;;;11.07;3.28;;;;;;;;;;4973663;28;20034;-67
2022/12/13 09:54:55;;;;;;;10.45;2.20;;;;;;;;;;4975250;28;20132;-66
2022/12/13 09:57:32;;;;;;;6.60;1.73;;;;;;;;;;4969415;28;20041;-65
2022/12/13 09:59:58;;;;;;;7.90;1.60;;;;;;;;;;4974493;28;20040;-65
2022/12/13 10:02:26;;;;;;;9.10;1.60;;;;;;;;;;4971564;28;20356;-66
2022/12/13 10:04:52;;;;;;;5.95;1.25;;;;;;;;;;4981228;28;20033;-66
2022/12/13 10:07:23;;;;;;;5.60;1.20;;;;;;;;;;4972416;28;20506;-66
2022/12/13 10:09:52;;;;;;;6.25;1.40;;;;;;;;;;4977270;28;20208;-65
2022/12/13 10:12:18;;;;;;;6.75;1.42;;;;;;;;;;4974820;28;20034;-65
2022/12/13 10:14:49;;;;;;;4.47;1.33;;;;;;;;;;4976984;28;20546;-65
2022/12/13 10:17:20;;;;;;;6.35;1.30;;;;;;;;;;4971695;28;20601;-65
2022/12/13 10:19:50;;;;;;;8.55;1.70;;;;;;;;;;4978034;28;20030;-65
2022/12/13 10:22:17;;;;;;;7.50;1.65;;;;;;;;;;4973444;28;20033;-65
2022/12/13 10:25:03;;;;;;;7.90;2.08;;;;;;;;;;4977739;28;20131;-67
2022/12/13 10:27:33;;;;;;;9.82;2.42;;;;;;;;;;4978082;28;20033;-66
2022/12/13 10:30:07;;;;;;;11.25;1.92;;;;;;;;;;4973182;28;20888;-66
2022/12/13 10:32:41;;;;;;;11.07;2.78;;;;;;;;;;4976661;28;20091;-66
2022/12/13 10:35:33;;;;;;;10.00;2.42;;;;;;;;;;4975259;28;20089;-66
2022/12/13 10:38:01;;;;;;;8.90;2.20;;;;;;;;;;4965953;28;20041;-66
2022/12/13 10:40:31;;;;;;;8.45;2.20;;;;;;;;;;4967322;28;20903;-66
2022/12/13 10:43:06;;;;;;;7.90;2.20;;;;;;;;;;4977176;28;20037;-66
2022/12/13 10:45:33;;;;;;;8.18;1.95;;;;;;;;;;4970853;28;20042;-65
2022/12/13 10:47:59;;;;;;;10.45;2.40;;;;;;;;;;4977523;28;20030;-65
2022/12/13 10:50:26;;;;;;;8.98;1.77;;;;;;;;;;4968510;28;20042;-65
2022/12/13 10:52:53;;;;;;;12.77;2.15;;;;;;;;;;4973984;28;20025;-65
2022/12/13 10:55:23;;;;;;;8.45;2.15;;;;;;;;;;4969258;28;20129;-65
2022/12/13 10:57:51;;;;;;;6.70;1.58;;;;;;;;;;4976230;28;20037;-65
2022/12/13 11:00:37;;;;;;;7.78;1.58;;;;;;;;;;4965770;28;20041;-65
2022/12/13 11:03:04;;;;;;;8.88;1.50;;;;;;;;;;4968343;28;20103;-66
2022/12/13 11:05:32;;;;;;;6.85;1.40;;;;;;;;;;4971180;28;20044;-66
2022/12/13 11:08:17;;;;;;;8.18;1.40;;;;;;;;;;4973150;28;20546;-66
2022/12/13 11:10:43;;;;;;;5.43;1.10;;;;;;;;;;4967366;28;20145;-66
2022/12/13 11:13:21;;;;;;;6.68;1.30;;;;;;;;;;4971430;28;20041;-66
2022/12/13 11:15:54;;;;;;;5.05;1.38;;;;;;;;;;4966765;28;20065;-66
2022/12/13 11:18:21;;;;;;;7.22;1.40;;;;;;;;;;4966315;28;20057;-65
2022/12/13 11:20:57;;;;;;;9.10;2.05;;;;;;;;;;4977205;28;20045;-65
2022/12/13 11:23:32;;;;;;;8.68;2.03;;;;;;;;;;4971711;28;20053;-66
2022/12/13 11:26:05;;;;;;;8.07;2.40;;;;;;;;;;4975580;28;20060;-66
2022/12/13 11:28:40;;;;;;;10.63;3.40;;;;;;;;;;4974558;28;20043;-66
2022/12/13 11:31:20;;;;;;;10.23;3.72;;;;;;;;;;4976036;28;20124;-66
2022/12/13 11:33:55;;;;;;;12.07;4.35;;;;;;;;;;4974187;28;20443;-65
2022/12/13 11:36:21;;;;;;;11.25;4.00;;;;;;;;;;4971589;28;20030;-65
2022/12/13 11:39:03;;;;;;;8.07;2.60;;;;;;;;;;4977437;28;20030;-66
2022/12/13 11:41:35;;;;;;;7.80;2.22;;;;;;;;;;4984860;28;20156;-66
2022/12/13 11:44:01;;;;;;;9.45;2.13;;;;;;;;;;4976459;28;20454;-67
2022/12/13 11:46:46;;;;;;;7.53;2.10;;;;;;;;;;4972790;28;20611;-67
2022/12/13 11:49:19;;;;;;;7.93;1.77;;;;;;;;;;4974411;28;20041;-67
2022/12/13 11:51:50;;;;;;;7.68;1.80;;;;;;;;;;4973328;28;20464;-67
2022/12/13 11:54:23;;;;;;;8.48;2.15;;;;;;;;;;4976821;28;20044;-67
2022/12/13 11:56:49;;;;;;;11.70;2.60;;;;;;;;;;4976144;28;20038;-67
2022/12/13 11:59:38;;;;;;;7.35;2.40;;;;;;;;;;4974273;28;20470;-65
2022/12/13 12:02:09;;;;;;;8.32;2.40;;;;;;;;;;4980224;28;20026;-65
2022/12/13 12:04:44;;;;;;;5.63;1.52;;;;;;;;;;4981335;28;20452;-65
2022/12/13 12:07:14;;;;;;;5.53;1.40;;;;;;;;;;4973949;28;20038;-66
2022/12/13 12:09:49;;;;;;;6.78;1.70;;;;;;;;;;4983019;28;20129;-66
2022/12/13 12:12:29;;;;;;;6.85;1.45;;;;;;;;;;4971628;28;20050;-65
2022/12/13 12:15:01;;;;;;;9.73;1.70;;;;;;;;;;4976504;28;20488;-65
2022/12/13 12:17:28;;;;;;;6.32;1.90;;;;;;;;;;4973737;28;20286;-66
2022/12/13 12:19:56;;;;;;;8.10;2.42;;;;;;;;;;4976468;28;20030;-66
2022/12/13 12:22:27;;;;;;;6.90;2.13;;;;;;;;;;4972077;28;20030;-66
2022/12/13 12:24:56;;;;;;;8.10;2.05;;;;;;;;;;4973084;28;20268;-66
2022/12/13 12:27:35;;;;;;;11.02;2.00;;;;;;;;;;4968575;28;20033;-66
2022/12/13 12:30:02;;;;;;;7.88;1.75;;;;;;;;;;4973071;28;20127;-66
2022/12/13 12:32:33;;;;;;;9.45;2.08;;;;;;;;;;4972549;28;20249;-66
2022/12/13 12:35:02;;;;;;;10.18;2.08;;;;;;;;;;4975920;28;20413;-65
2022/12/13 12:37:35;;;;;;;11.27;2.10;;;;;;;;;;4966820;28;20041;-68
2022/12/13 12:40:31;;;;;;;10.38;2.10;;;;;;;;;;4972980;28;20081;-67
2022/12/13 12:43:16;;;;;;;8.45;1.85;;;;;;;;;;4969973;28;20121;-66
2022/12/13 12:45:42;;;;;;;8.43;2.10;;;;;;;;;;4967819;28;20019;-66
2022/12/13 12:48:15;;;;;;;10.07;2.38;;;;;;;;;;4976109;28;20356;-66
2022/12/13 12:50:48;;;;;;;11.48;2.88;;;;;;;;;;4979027;28;20433;-65
2022/12/13 12:53:26;;;;;;;11.65;2.50;;;;;;;;;;4970860;28;20657;-66
2022/12/13 12:55:55;;;;;;;11.15;3.05;;;;;;;;;;4976200;28;20022;-65
2022/12/13 12:58:26;;;;;;;10.98;2.90;;;;;;;;;;4970608;28;21289;-67
2022/12/13 13:01:11;;;;;;;12.00;3.20;;;;;;;;;;4974063;28;20033;-67
2022/12/13 13:03:40;;;;;;;11.80;2.83;;;;;;;;;;4975188;28;20050;-65
2022/12/13 13:06:06;;;;;;;14.57;2.70;;;;;;;;;;4976527;28;20032;-68
2022/12/13 13:08:39;;;;;;;14.65;2.90;;;;;;;;;;4962456;28;20030;-67
2022/12/13 13:11:06;;;;;;;17.05;3.72;;;;;;;;;;4973720;28;20046;-67
2022/12/13 13:13:37;;;;;;;12.35;2.83;;;;;;;;;;4971419;28;20030;-67
2022/12/13 13:16:04;;;;;;;15.50;3.63;;;;;;;;;;4980319;28;20128;-67
2022/12/13 13:18:43;;;;;;;18.00;3.70;;;;;;;;;;4975655;28;20586;-67
2022/12/13 13:21:32;;;;;;;18.15;3.65;;;;;;;;;;4973845;28;20026;-67
2022/12/13 13:24:01;;;;;;;20.55;4.35;;;;;;;;;;4968887;28;20049;-67
2022/12/13 13:26:28;;;;;;;17.98;3.97;;;;;;;;;;4968425;28;20652;-67
2022/12/13 13:28:55;;;;;;;21.63;4.90;;;;;;;;;;4973641;28;20408;-67
2022/12/13 13:31:22;;;;;;;20.08;4.40;;;;;;;;;;4974376;28;20030;-67
2022/12/13 13:33:49;;;;;;;19.08;4.32;;;;;;;;;;4983647;28;20025;-67
2022/12/13 13:36:34;;;;;;;19.92;4.45;;;;;;;;;;4971145;28;20920;-68
2022/12/13 13:39:00;;;;;;;17.92;4.50;;;;;;;;;;4975486;28;20104;-68
2022/12/13 13:41:45;;;;;;;21.20;4.10;;;;;;;;;;4972416;28;20116;-69
2022/12/13 13:44:29;;;;;;;13.82;2.92;;;;;;;;;;4971299;28;20048;-70
2022/12/13 13:47:14;;;;;;;11.82;1.80;;;;;;;;;;4977346;28;20115;-66
2022/12/13 13:50:03;;;;;;;6.60;1.63;;;;;;;;;;4977157;28;20033;-66
2022/12/13 13:52:48;;;;;;;11.00;1.80;;;;;;;;;;4928278;28;20054;-66
2022/12/13 13:55:26;;;;;;;9.90;1.77;;;;;;;;;;4929644;28;20423;-66
2022/12/13 13:58:11;;;;;;;8.95;1.88;;;;;;;;;;4931948;28;20675;-66
2022/12/13 14:01:04;;;;;;;11.23;2.03;;;;;;;;;;4930389;28;20041;-67
2022/12/13 14:03:48;;;;;;;13.20;2.22;;;;;;;;;;4929738;28;20118;-66
2022/12/13 14:06:26;;;;;;;9.95;1.85;;;;;;;;;;4928906;28;20027;-66
2022/12/13 14:09:13;;;;;;;14.18;2.45;;;;;;;;;;4931008;28;20050;-66
2022/12/13 14:11:39;;;;;;;14.85;3.63;;;;;;;;;;4924545;28;20047;-66
2022/12/13 14:14:05;;;;;;;;;;;;;;;;;;4927971;28;20298;-66
2022/12/13 14:16:37;;;;;;;23.65;5.03;;;;;;;;;;4930223;28;19999;-66
2022/12/13 14:19:10;;;;;;;26.13;5.13;;;;;;;;;;4934174;28;20209;-66
2022/12/13 14:21:42;;;;;;;23.88;4.93;;;;;;;;;;4916026;28;20045;-66
2022/12/13 14:24:43;;;;;;;23.48;5.05;;;;;;;;;;4931281;28;20074;-66
2022/12/13 14:27:22;;;;;;;25.65;5.15;;;;;;;;;;4893698;28;20123;-66
2022/12/13 14:29:49;;;;;;;28.13;6.38;;;;;;;;;;4908481;28;20042;-66
2022/12/13 14:32:35;;;;;;;28.80;5.93;;;;;;;;;;4893323;28;20031;-65
2022/12/13 14:35:02;;;;;;;25.73;5.10;;;;;;;;;;4913337;28;20043;-66
2022/12/13 14:37:29;;;;;;;30.40;6.50;;;;;;;;;;4906911;28;20036;-66
2022/12/13 14:39:56;;;;;;;34.00;6.38;;;;;;;;;;4917025;28;21097;-68
2022/12/13 14:42:28;;;;;;;26.27;5.43;;;;;;;;;;4912887;28;20055;-68
2022/12/13 14:44:55;;;;;;;31.30;6.57;;;;;;;;;;4898740;28;20027;-66
2022/12/13 14:47:22;;;;;;;29.08;5.68;;;;;;;;;;4910209;28;20034;-67
2022/12/13 14:49:51;;;;;;;30.67;5.82;;;;;;;;;;4917108;28;20031;-66
2022/12/13 14:52:28;;;;;;;29.52;6.35;;;;;;;;;;4896795;28;20503;-66
2022/12/13 14:54:56;;;;;;;32.15;6.03;;;;;;;;;;4915664;28;20114;-66
2022/12/13 14:57:23;;;;;;;32.17;6.47;;;;;;;;;;4910553;28;20039;-66
2022/12/13 14:59:54;;;;;;;35.30;5.80;;;;;;;;;;4914146;28;20043;-66
2022/12/13 15:02:31;;;;;;;29.02;6.55;;;;;;;;;;4965581;28;20144;-66
2022/12/13 15:05:02;;;;;;;32.05;6.53;;;;;;;;;;4974117;28;20650;-66
2022/12/13 15:07:32;;;;;;;27.95;5.90;;;;;;;;;;4969310;28;20113;-68
2022/12/13 15:10:00;;;;;;;35.72;6.82;;;;;;;;;;4970807;28;20264;-65
2022/12/13 15:12:27;;;;;;;31.27;6.95;;;;;;;;;;4972231;28;20495;-65